sensor_id;sensor_type;location;lat;lon;timestamp;temperature;humidity
652;DHT22;310;48.490;9.200;2022-11-14T00:00:41;7.50;43.30
652;DHT22;310;48.490;9.200;2022-11-14T00:03:08;7.40;43.80
652;DHT22;310;48.490;9.200;2022-11-14T00:05:42;7.30;44.30
652;DHT22;310;48.490;9.200;2022-11-14T00:08:15;7.40;43.80
652;DHT22;310;48.490;9.200;2022-11-14T00:10:42;7.30;43.50
652;DHT22;310;48.490;9.200;2022-11-14T00:13:09;7.30;43.70
652;DHT22;310;48.490;9.200;2022-11-14T00:15:34;7.40;43.20
652;DHT22;310;48.490;9.200;2022-11-14T00:18:00;7.20;43.60
652;DHT22;310;48.490;9.200;2022-11-14T00:20:25;7.20;43.80
652;DHT22;310;48.490;9.200;2022-11-14T00:22:51;7.20;43.90
652;DHT22;310;48.490;9.200;2022-11-14T00:25:17;7.20;44.00
652;DHT22;310;48.490;9.200;2022-11-14T00:27:42;7.20;43.30
652;DHT22;310;48.490;9.200;2022-11-14T00:30:08;7.20;43.70
652;DHT22;310;48.490;9.200;2022-11-14T00:32:34;7.10;43.90
652;DHT22;310;48.490;9.200;2022-11-14T00:34:59;7.10;43.60
652;DHT22;310;48.490;9.200;2022-11-14T00:37:25;7.00;43.60
652;DHT22;310;48.490;9.200;2022-11-14T00:39:51;7.10;43.50
652;DHT22;310;48.490;9.200;2022-11-14T00:42:17;6.70;44.80
652;DHT22;310;48.490;9.200;2022-11-14T00:44:42;6.90;44.70
652;DHT22;310;48.490;9.200;2022-11-14T00:47:08;7.00;44.40
652;DHT22;310;48.490;9.200;2022-11-14T00:49:34;7.00;43.40
652;DHT22;310;48.490;9.200;2022-11-14T00:52:00;7.10;42.70
652;DHT22;310;48.490;9.200;2022-11-14T00:54:25;7.00;43.50
652;DHT22;310;48.490;9.200;2022-11-14T00:56:51;7.20;42.90
652;DHT22;310;48.490;9.200;2022-11-14T00:59:17;7.00;43.10
652;DHT22;310;48.490;9.200;2022-11-14T01:01:42;6.90;44.80
652;DHT22;310;48.490;9.200;2022-11-14T01:04:08;6.90;44.20
652;DHT22;310;48.490;9.200;2022-11-14T01:06:33;7.00;43.50
652;DHT22;310;48.490;9.200;2022-11-14T01:08:59;7.00;42.80
652;DHT22;310;48.490;9.200;2022-11-14T01:11:25;7.00;42.80
652;DHT22;310;48.490;9.200;2022-11-14T01:13:50;6.80;43.00
652;DHT22;310;48.490;9.200;2022-11-14T01:16:16;6.90;42.60
652;DHT22;310;48.490;9.200;2022-11-14T01:18:42;6.90;42.90
652;DHT22;310;48.490;9.200;2022-11-14T01:21:10;6.90;43.40
652;DHT22;310;48.490;9.200;2022-11-14T01:23:36;6.90;43.10
652;DHT22;310;48.490;9.200;2022-11-14T01:26:07;6.80;43.00
652;DHT22;310;48.490;9.200;2022-11-14T01:28:33;6.90;42.60
652;DHT22;310;48.490;9.200;2022-11-14T01:31:14;6.80;42.60
652;DHT22;310;48.490;9.200;2022-11-14T01:33:40;6.70;42.90
652;DHT22;310;48.490;9.200;2022-11-14T01:36:07;6.60;43.30
652;DHT22;310;48.490;9.200;2022-11-14T01:38:33;6.60;44.20
652;DHT22;310;48.490;9.200;2022-11-14T01:40:59;6.70;43.30
652;DHT22;310;48.490;9.200;2022-11-14T01:43:28;6.60;42.90
652;DHT22;310;48.490;9.200;2022-11-14T01:45:55;6.80;43.20
652;DHT22;310;48.490;9.200;2022-11-14T01:53:45;6.70;42.70
652;DHT22;310;48.490;9.200;2022-11-14T01:56:15;6.80;42.80
652;DHT22;310;48.490;9.200;2022-11-14T01:58:46;6.80;42.70
652;DHT22;310;48.490;9.200;2022-11-14T02:01:13;6.70;43.90
652;DHT22;310;48.490;9.200;2022-11-14T02:03:41;6.40;44.40
652;DHT22;310;48.490;9.200;2022-11-14T02:06:11;6.30;44.60
652;DHT22;310;48.490;9.200;2022-11-14T02:08:38;6.30;44.70
652;DHT22;310;48.490;9.200;2022-11-14T02:11:04;6.30;44.90
652;DHT22;310;48.490;9.200;2022-11-14T02:13:29;6.40;44.80
652;DHT22;310;48.490;9.200;2022-11-14T02:15:55;6.40;43.70
652;DHT22;310;48.490;9.200;2022-11-14T02:18:21;6.50;43.60
652;DHT22;310;48.490;9.200;2022-11-14T02:20:46;6.40;43.70
652;DHT22;310;48.490;9.200;2022-11-14T02:23:12;6.40;44.10
652;DHT22;310;48.490;9.200;2022-11-14T02:25:38;6.40;43.90
652;DHT22;310;48.490;9.200;2022-11-14T02:28:06;6.50;43.30
652;DHT22;310;48.490;9.200;2022-11-14T02:30:32;6.60;42.50
652;DHT22;310;48.490;9.200;2022-11-14T02:32:58;6.70;42.90
652;DHT22;310;48.490;9.200;2022-11-14T02:35:23;6.50;43.30
652;DHT22;310;48.490;9.200;2022-11-14T02:37:49;6.50;43.30
652;DHT22;310;48.490;9.200;2022-11-14T02:40:15;6.60;43.10
652;DHT22;310;48.490;9.200;2022-11-14T02:42:40;6.40;43.00
652;DHT22;310;48.490;9.200;2022-11-14T02:45:06;6.30;43.80
652;DHT22;310;48.490;9.200;2022-11-14T02:47:32;6.40;43.40
652;DHT22;310;48.490;9.200;2022-11-14T02:49:58;6.50;43.60
652;DHT22;310;48.490;9.200;2022-11-14T02:52:24;6.40;43.90
652;DHT22;310;48.490;9.200;2022-11-14T02:54:49;6.40;44.00
652;DHT22;310;48.490;9.200;2022-11-14T02:57:15;6.60;45.50
652;DHT22;310;48.490;9.200;2022-11-14T02:59:40;6.50;50.50
652;DHT22;310;48.490;9.200;2022-11-14T03:02:06;6.80;50.40
652;DHT22;310;48.490;9.200;2022-11-14T03:04:31;7.20;49.10
652;DHT22;310;48.490;9.200;2022-11-14T03:06:57;6.60;46.20
652;DHT22;310;48.490;9.200;2022-11-14T03:09:22;5.90;48.40
652;DHT22;310;48.490;9.200;2022-11-14T03:11:48;5.90;49.10
652;DHT22;310;48.490;9.200;2022-11-14T03:14:14;6.00;48.20
652;DHT22;310;48.490;9.200;2022-11-14T03:16:39;6.20;47.00
652;DHT22;310;48.490;9.200;2022-11-14T03:19:05;5.90;47.60
652;DHT22;310;48.490;9.200;2022-11-14T03:21:30;5.70;47.50
652;DHT22;310;48.490;9.200;2022-11-14T03:23:56;5.60;48.70
652;DHT22;310;48.490;9.200;2022-11-14T03:26:21;5.50;49.10
652;DHT22;310;48.490;9.200;2022-11-14T03:28:47;5.50;49.40
652;DHT22;310;48.490;9.200;2022-11-14T03:31:13;5.80;48.50
652;DHT22;310;48.490;9.200;2022-11-14T03:33:39;6.00;48.30
652;DHT22;310;48.490;9.200;2022-11-14T03:36:06;6.30;46.30
652;DHT22;310;48.490;9.200;2022-11-14T03:38:32;6.50;45.90
652;DHT22;310;48.490;9.200;2022-11-14T03:40:58;6.50;46.30
652;DHT22;310;48.490;9.200;2022-11-14T03:43:25;6.70;46.90
652;DHT22;310;48.490;9.200;2022-11-14T03:45:50;7.00;46.50
652;DHT22;310;48.490;9.200;2022-11-14T03:48:16;7.20;47.20
652;DHT22;310;48.490;9.200;2022-11-14T03:50:42;7.60;47.20
652;DHT22;310;48.490;9.200;2022-11-14T03:53:08;7.80;47.00
652;DHT22;310;48.490;9.200;2022-11-14T03:55:34;8.00;47.10
652;DHT22;310;48.490;9.200;2022-11-14T03:58:00;8.10;47.90
652;DHT22;310;48.490;9.200;2022-11-14T04:00:26;8.00;48.60
652;DHT22;310;48.490;9.200;2022-11-14T04:02:55;7.00;46.90
652;DHT22;310;48.490;9.200;2022-11-14T04:05:22;6.20;48.70
652;DHT22;310;48.490;9.200;2022-11-14T04:07:48;6.00;49.50
652;DHT22;310;48.490;9.200;2022-11-14T04:10:14;5.70;50.60
652;DHT22;310;48.490;9.200;2022-11-14T04:12:39;5.60;51.90
652;DHT22;310;48.490;9.200;2022-11-14T04:15:05;5.50;50.50
652;DHT22;310;48.490;9.200;2022-11-14T04:17:31;5.20;51.00
652;DHT22;310;48.490;9.200;2022-11-14T04:19:56;4.60;53.90
652;DHT22;310;48.490;9.200;2022-11-14T04:22:22;4.60;55.10
652;DHT22;310;48.490;9.200;2022-11-14T04:24:47;4.70;57.10
652;DHT22;310;48.490;9.200;2022-11-14T04:27:13;5.50;54.10
652;DHT22;310;48.490;9.200;2022-11-14T04:29:39;5.80;49.70
652;DHT22;310;48.490;9.200;2022-11-14T04:32:04;5.50;50.50
652;DHT22;310;48.490;9.200;2022-11-14T04:34:30;5.30;51.00
652;DHT22;310;48.490;9.200;2022-11-14T04:36:55;4.80;52.70
652;DHT22;310;48.490;9.200;2022-11-14T04:39:21;4.40;57.00
652;DHT22;310;48.490;9.200;2022-11-14T04:41:46;4.90;54.20
652;DHT22;310;48.490;9.200;2022-11-14T04:44:12;5.40;51.90
652;DHT22;310;48.490;9.200;2022-11-14T04:46:37;5.80;50.30
652;DHT22;310;48.490;9.200;2022-11-14T04:49:03;6.00;47.70
652;DHT22;310;48.490;9.200;2022-11-14T04:51:29;6.40;46.50
652;DHT22;310;48.490;9.200;2022-11-14T04:53:54;6.50;46.50
652;DHT22;310;48.490;9.200;2022-11-14T04:56:20;6.70;46.30
652;DHT22;310;48.490;9.200;2022-11-14T04:58:48;6.80;46.10
652;DHT22;310;48.490;9.200;2022-11-14T05:01:14;6.90;45.70
652;DHT22;310;48.490;9.200;2022-11-14T05:03:39;6.80;46.60
652;DHT22;310;48.490;9.200;2022-11-14T05:06:06;6.80;45.40
652;DHT22;310;48.490;9.200;2022-11-14T05:08:31;6.50;45.60
652;DHT22;310;48.490;9.200;2022-11-14T05:10:58;5.70;49.40
652;DHT22;310;48.490;9.200;2022-11-14T05:13:23;6.00;49.00
652;DHT22;310;48.490;9.200;2022-11-14T05:15:49;6.20;48.30
652;DHT22;310;48.490;9.200;2022-11-14T05:18:14;6.60;46.60
652;DHT22;310;48.490;9.200;2022-11-14T05:20:40;6.80;46.50
652;DHT22;310;48.490;9.200;2022-11-14T05:23:06;6.70;45.90
652;DHT22;310;48.490;9.200;2022-11-14T05:25:31;6.70;46.70
652;DHT22;310;48.490;9.200;2022-11-14T05:27:57;6.70;46.70
652;DHT22;310;48.490;9.200;2022-11-14T05:30:22;6.30;48.00
652;DHT22;310;48.490;9.200;2022-11-14T05:32:50;6.30;47.60
652;DHT22;310;48.490;9.200;2022-11-14T05:35:20;6.00;49.40
652;DHT22;310;48.490;9.200;2022-11-14T05:37:45;6.00;48.90
652;DHT22;310;48.490;9.200;2022-11-14T05:40:11;5.20;53.70
652;DHT22;310;48.490;9.200;2022-11-14T05:42:37;5.60;53.10
652;DHT22;310;48.490;9.200;2022-11-14T05:45:03;6.00;51.10
652;DHT22;310;48.490;9.200;2022-11-14T05:47:28;6.30;50.10
652;DHT22;310;48.490;9.200;2022-11-14T05:49:54;6.30;48.60
652;DHT22;310;48.490;9.200;2022-11-14T05:52:19;6.40;48.70
652;DHT22;310;48.490;9.200;2022-11-14T05:54:45;6.70;47.60
652;DHT22;310;48.490;9.200;2022-11-14T05:57:10;6.90;46.90
652;DHT22;310;48.490;9.200;2022-11-14T05:59:36;6.80;46.80
652;DHT22;310;48.490;9.200;2022-11-14T06:02:02;7.00;46.70
652;DHT22;310;48.490;9.200;2022-11-14T06:04:27;7.00;46.40
652;DHT22;310;48.490;9.200;2022-11-14T06:06:53;7.30;46.80
652;DHT22;310;48.490;9.200;2022-11-14T06:09:18;7.00;47.00
652;DHT22;310;48.490;9.200;2022-11-14T06:11:44;6.80;47.60
652;DHT22;310;48.490;9.200;2022-11-14T06:14:09;6.60;48.70
652;DHT22;310;48.490;9.200;2022-11-14T06:16:35;6.90;47.80
652;DHT22;310;48.490;9.200;2022-11-14T06:19:00;6.70;48.70
652;DHT22;310;48.490;9.200;2022-11-14T06:21:26;6.90;48.70
652;DHT22;310;48.490;9.200;2022-11-14T06:23:52;7.50;47.30
652;DHT22;310;48.490;9.200;2022-11-14T06:26:25;7.50;45.70
652;DHT22;310;48.490;9.200;2022-11-14T06:28:52;7.60;45.40
652;DHT22;310;48.490;9.200;2022-11-14T06:31:19;7.70;44.70
652;DHT22;310;48.490;9.200;2022-11-14T06:33:45;7.60;45.40
652;DHT22;310;48.490;9.200;2022-11-14T06:36:11;7.70;44.90
652;DHT22;310;48.490;9.200;2022-11-14T06:38:38;8.20;45.30
652;DHT22;310;48.490;9.200;2022-11-14T06:41:06;7.80;44.80
652;DHT22;310;48.490;9.200;2022-11-14T06:43:36;8.00;45.10
652;DHT22;310;48.490;9.200;2022-11-14T06:46:03;7.80;45.10
652;DHT22;310;48.490;9.200;2022-11-14T06:48:30;7.90;45.10
652;DHT22;310;48.490;9.200;2022-11-14T06:50:57;8.00;44.60
652;DHT22;310;48.490;9.200;2022-11-14T06:53:24;8.10;44.70
652;DHT22;310;48.490;9.200;2022-11-14T06:56:16;8.10;45.00
652;DHT22;310;48.490;9.200;2022-11-14T06:58:43;8.10;45.30
652;DHT22;310;48.490;9.200;2022-11-14T07:01:21;8.00;45.60
652;DHT22;310;48.490;9.200;2022-11-14T07:03:47;7.90;45.50
652;DHT22;310;48.490;9.200;2022-11-14T07:06:15;7.80;45.40
652;DHT22;310;48.490;9.200;2022-11-14T07:08:42;7.30;46.50
652;DHT22;310;48.490;9.200;2022-11-14T07:11:11;7.40;47.30
652;DHT22;310;48.490;9.200;2022-11-14T07:13:50;7.80;45.90
652;DHT22;310;48.490;9.200;2022-11-14T07:16:17;8.30;45.50
652;DHT22;310;48.490;9.200;2022-11-14T07:18:42;8.20;44.60
652;DHT22;310;48.490;9.200;2022-11-14T07:21:08;8.20;44.70
652;DHT22;310;48.490;9.200;2022-11-14T07:23:34;8.10;44.90
652;DHT22;310;48.490;9.200;2022-11-14T07:26:01;8.20;45.40
652;DHT22;310;48.490;9.200;2022-11-14T07:28:27;8.50;46.90
652;DHT22;310;48.490;9.200;2022-11-14T07:30:53;8.20;46.40
652;DHT22;310;48.490;9.200;2022-11-14T07:33:19;8.30;46.60
652;DHT22;310;48.490;9.200;2022-11-14T07:35:45;8.30;47.30
652;DHT22;310;48.490;9.200;2022-11-14T07:38:10;8.30;48.10
652;DHT22;310;48.490;9.200;2022-11-14T07:40:36;8.30;47.20
652;DHT22;310;48.490;9.200;2022-11-14T07:43:02;8.40;47.20
652;DHT22;310;48.490;9.200;2022-11-14T07:45:28;8.80;47.40
652;DHT22;310;48.490;9.200;2022-11-14T07:47:58;8.50;46.70
652;DHT22;310;48.490;9.200;2022-11-14T07:50:25;8.80;46.70
652;DHT22;310;48.490;9.200;2022-11-14T07:52:52;8.70;46.20
652;DHT22;310;48.490;9.200;2022-11-14T07:55:18;8.20;48.00
652;DHT22;310;48.490;9.200;2022-11-14T07:57:44;8.00;50.90
652;DHT22;310;48.490;9.200;2022-11-14T08:00:10;7.40;66.90
652;DHT22;310;48.490;9.200;2022-11-14T08:02:37;8.10;77.90
652;DHT22;310;48.490;9.200;2022-11-14T08:05:03;9.00;80.00
652;DHT22;310;48.490;9.200;2022-11-14T08:07:29;9.70;75.00
652;DHT22;310;48.490;9.200;2022-11-14T08:09:54;10.20;72.20
652;DHT22;310;48.490;9.200;2022-11-14T08:12:20;10.60;64.60
652;DHT22;310;48.490;9.200;2022-11-14T08:14:45;8.80;56.10
652;DHT22;310;48.490;9.200;2022-11-14T08:17:11;7.60;59.50
652;DHT22;310;48.490;9.200;2022-11-14T08:19:37;7.30;62.70
652;DHT22;310;48.490;9.200;2022-11-14T08:22:02;7.50;64.70
652;DHT22;310;48.490;9.200;2022-11-14T08:24:28;7.80;62.70
652;DHT22;310;48.490;9.200;2022-11-14T08:26:53;8.10;63.00
652;DHT22;310;48.490;9.200;2022-11-14T08:29:19;8.50;69.80
652;DHT22;310;48.490;9.200;2022-11-14T08:31:45;7.90;67.70
652;DHT22;310;48.490;9.200;2022-11-14T08:34:11;7.70;64.50
652;DHT22;310;48.490;9.200;2022-11-14T08:36:37;7.50;65.30
652;DHT22;310;48.490;9.200;2022-11-14T08:39:02;8.10;61.50
652;DHT22;310;48.490;9.200;2022-11-14T08:41:28;8.10;61.30
652;DHT22;310;48.490;9.200;2022-11-14T08:43:54;8.20;64.10
652;DHT22;310;48.490;9.200;2022-11-14T08:46:20;8.70;73.50
652;DHT22;310;48.490;9.200;2022-11-14T08:48:45;9.40;77.20
652;DHT22;310;48.490;9.200;2022-11-14T08:51:11;9.70;79.30
652;DHT22;310;48.490;9.200;2022-11-14T08:53:36;10.10;75.50
652;DHT22;310;48.490;9.200;2022-11-14T08:56:02;10.30;74.20
652;DHT22;310;48.490;9.200;2022-11-14T08:58:29;10.30;74.10
652;DHT22;310;48.490;9.200;2022-11-14T09:01:00;10.80;71.00
652;DHT22;310;48.490;9.200;2022-11-14T09:03:26;11.00;68.80
652;DHT22;310;48.490;9.200;2022-11-14T09:05:52;11.50;64.20
652;DHT22;310;48.490;9.200;2022-11-14T09:08:18;12.30;62.40
652;DHT22;310;48.490;9.200;2022-11-14T09:10:43;11.50;62.90
652;DHT22;310;48.490;9.200;2022-11-14T09:13:09;11.70;61.90
652;DHT22;310;48.490;9.200;2022-11-14T09:15:35;11.50;62.50
652;DHT22;310;48.490;9.200;2022-11-14T09:18:01;11.70;61.90
652;DHT22;310;48.490;9.200;2022-11-14T09:20:27;11.80;60.00
652;DHT22;310;48.490;9.200;2022-11-14T09:22:57;11.70;61.40
652;DHT22;310;48.490;9.200;2022-11-14T09:25:23;11.40;62.50
652;DHT22;310;48.490;9.200;2022-11-14T09:27:51;11.40;63.10
652;DHT22;310;48.490;9.200;2022-11-14T09:30:17;11.60;60.70
652;DHT22;310;48.490;9.200;2022-11-14T09:32:42;11.50;61.30
652;DHT22;310;48.490;9.200;2022-11-14T09:35:08;11.60;63.10
652;DHT22;310;48.490;9.200;2022-11-14T09:37:34;11.50;59.80
652;DHT22;310;48.490;9.200;2022-11-14T09:40:00;11.40;63.20
652;DHT22;310;48.490;9.200;2022-11-14T09:43:00;11.60;60.60
652;DHT22;310;48.490;9.200;2022-11-14T09:45:21;12.00;57.10
652;DHT22;310;48.490;9.200;2022-11-14T09:47:53;11.80;61.40
652;DHT22;310;48.490;9.200;2022-11-14T09:50:34;11.60;61.60
652;DHT22;310;48.490;9.200;2022-11-14T09:53:10;12.00;59.90
652;DHT22;310;48.490;9.200;2022-11-14T09:55:41;12.00;59.30
652;DHT22;310;48.490;9.200;2022-11-14T09:58:12;12.30;60.00
652;DHT22;310;48.490;9.200;2022-11-14T10:01:05;12.30;57.30
652;DHT22;310;48.490;9.200;2022-11-14T10:04:14;12.40;55.80
652;DHT22;310;48.490;9.200;2022-11-14T10:06:45;12.30;55.10
652;DHT22;310;48.490;9.200;2022-11-14T10:11:58;12.40;55.30
652;DHT22;310;48.490;9.200;2022-11-14T10:14:37;12.20;55.20
652;DHT22;310;48.490;9.200;2022-11-14T10:19:46;11.80;59.50
652;DHT22;310;48.490;9.200;2022-11-14T10:27:37;12.20;57.00
652;DHT22;310;48.490;9.200;2022-11-14T10:30:11;12.20;57.10
652;DHT22;310;48.490;9.200;2022-11-14T10:35:22;12.30;55.80
652;DHT22;310;48.490;9.200;2022-11-14T10:45:46;13.00;51.40
652;DHT22;310;48.490;9.200;2022-11-14T10:53:49;12.50;53.40
652;DHT22;310;48.490;9.200;2022-11-14T10:56:16;12.80;51.20
652;DHT22;310;48.490;9.200;2022-11-14T10:58:43;12.60;52.50
652;DHT22;310;48.490;9.200;2022-11-14T11:04:26;12.70;52.30
652;DHT22;310;48.490;9.200;2022-11-14T11:09:31;12.70;53.20
652;DHT22;310;48.490;9.200;2022-11-14T11:12:18;12.70;54.30
652;DHT22;310;48.490;9.200;2022-11-14T11:14:45;12.60;52.50
652;DHT22;310;48.490;9.200;2022-11-14T11:19:38;12.90;51.30
652;DHT22;310;48.490;9.200;2022-11-14T11:22:08;12.60;52.60
652;DHT22;310;48.490;9.200;2022-11-14T11:24:47;12.80;50.80
652;DHT22;310;48.490;9.200;2022-11-14T11:27:23;13.10;52.00
652;DHT22;310;48.490;9.200;2022-11-14T11:32:32;12.90;50.90
652;DHT22;310;48.490;9.200;2022-11-14T11:35:00;13.20;50.30
652;DHT22;310;48.490;9.200;2022-11-14T11:37:30;13.40;47.40
652;DHT22;310;48.490;9.200;2022-11-14T11:40:01;13.40;48.20
652;DHT22;310;48.490;9.200;2022-11-14T11:42:35;13.90;48.20
652;DHT22;310;48.490;9.200;2022-11-14T11:45:09;13.70;47.10
652;DHT22;310;48.490;9.200;2022-11-14T11:47:39;13.30;49.30
652;DHT22;310;48.490;9.200;2022-11-14T11:50:14;13.40;47.50
652;DHT22;310;48.490;9.200;2022-11-14T11:55:32;13.70;47.10
652;DHT22;310;48.490;9.200;2022-11-14T11:58:28;14.10;47.60
652;DHT22;310;48.490;9.200;2022-11-14T12:00:55;13.40;48.90
652;DHT22;310;48.490;9.200;2022-11-14T12:03:23;13.40;48.50
652;DHT22;310;48.490;9.200;2022-11-14T12:11:11;13.50;47.90
652;DHT22;310;48.490;9.200;2022-11-14T12:16:30;14.10;46.60
652;DHT22;310;48.490;9.200;2022-11-14T12:21:48;15.00;42.90
652;DHT22;310;48.490;9.200;2022-11-14T12:27:24;15.10;41.60
652;DHT22;310;48.490;9.200;2022-11-14T12:30:19;14.60;43.70
652;DHT22;310;48.490;9.200;2022-11-14T12:32:50;14.60;43.30
652;DHT22;310;48.490;9.200;2022-11-14T12:35:20;14.80;42.30
652;DHT22;310;48.490;9.200;2022-11-14T12:37:49;14.70;42.60
652;DHT22;310;48.490;9.200;2022-11-14T12:40:34;15.00;41.90
652;DHT22;310;48.490;9.200;2022-11-14T12:43:01;15.10;42.00
652;DHT22;310;48.490;9.200;2022-11-14T12:50:45;16.00;39.60
652;DHT22;310;48.490;9.200;2022-11-14T13:11:50;16.30;38.20
652;DHT22;310;48.490;9.200;2022-11-14T13:14:51;16.70;37.90
652;DHT22;310;48.490;9.200;2022-11-14T13:17:36;16.40;37.80
652;DHT22;310;48.490;9.200;2022-11-14T13:23:05;16.80;39.70
652;DHT22;310;48.490;9.200;2022-11-14T13:33:42;16.50;36.50
652;DHT22;310;48.490;9.200;2022-11-14T13:36:51;16.70;38.60
652;DHT22;310;48.490;9.200;2022-11-14T13:39:21;17.40;35.70
652;DHT22;310;48.490;9.200;2022-11-14T13:47:33;17.50;34.90
652;DHT22;310;48.490;9.200;2022-11-14T13:50:11;18.10;34.50
652;DHT22;310;48.490;9.200;2022-11-14T13:52:45;18.20;32.90
652;DHT22;310;48.490;9.200;2022-11-14T13:55:24;18.20;32.60
652;DHT22;310;48.490;9.200;2022-11-14T14:12:37;19.50;30.00
652;DHT22;310;48.490;9.200;2022-11-14T14:15:32;18.80;30.00
652;DHT22;310;48.490;9.200;2022-11-14T14:21:21;17.70;31.70
652;DHT22;310;48.490;9.200;2022-11-14T14:32:18;16.70;34.10
652;DHT22;310;48.490;9.200;2022-11-14T14:34:44;16.60;34.40
652;DHT22;310;48.490;9.200;2022-11-14T14:37:28;16.20;36.00
652;DHT22;310;48.490;9.200;2022-11-14T14:40:03;16.00;36.00
652;DHT22;310;48.490;9.200;2022-11-14T14:42:37;15.70;36.90
652;DHT22;310;48.490;9.200;2022-11-14T14:45:03;15.40;38.40
652;DHT22;310;48.490;9.200;2022-11-14T14:47:38;15.50;38.30
652;DHT22;310;48.490;9.200;2022-11-14T14:50:21;15.60;37.60
652;DHT22;310;48.490;9.200;2022-11-14T14:52:55;15.80;35.90
652;DHT22;310;48.490;9.200;2022-11-14T14:55:25;15.90;36.70
652;DHT22;310;48.490;9.200;2022-11-14T14:57:50;15.40;37.40
652;DHT22;310;48.490;9.200;2022-11-14T15:00:20;15.10;38.40
652;DHT22;310;48.490;9.200;2022-11-14T15:02:46;15.00;38.90
652;DHT22;310;48.490;9.200;2022-11-14T15:05:24;15.00;39.50
652;DHT22;310;48.490;9.200;2022-11-14T15:07:56;15.00;38.90
652;DHT22;310;48.490;9.200;2022-11-14T15:10:29;15.30;37.30
652;DHT22;310;48.490;9.200;2022-11-14T15:12:58;15.10;37.90
652;DHT22;310;48.490;9.200;2022-11-14T15:15:25;14.80;39.20
652;DHT22;310;48.490;9.200;2022-11-14T15:17:52;14.80;38.80
652;DHT22;310;48.490;9.200;2022-11-14T15:20:29;14.50;40.50
652;DHT22;310;48.490;9.200;2022-11-14T15:23:24;14.40;40.50
652;DHT22;310;48.490;9.200;2022-11-14T15:26:03;14.50;40.10
652;DHT22;310;48.490;9.200;2022-11-14T15:28:34;14.70;39.80
652;DHT22;310;48.490;9.200;2022-11-14T15:31:01;14.50;40.80
652;DHT22;310;48.490;9.200;2022-11-14T15:33:33;14.50;39.90
652;DHT22;310;48.490;9.200;2022-11-14T15:36:10;14.60;40.80
652;DHT22;310;48.490;9.200;2022-11-14T15:38:37;14.60;40.00
652;DHT22;310;48.490;9.200;2022-11-14T15:41:23;14.80;39.10
652;DHT22;310;48.490;9.200;2022-11-14T15:43:51;14.80;39.70
652;DHT22;310;48.490;9.200;2022-11-14T15:49:20;14.80;39.40
652;DHT22;310;48.490;9.200;2022-11-14T15:51:53;14.90;39.60
652;DHT22;310;48.490;9.200;2022-11-14T15:54:30;14.50;40.20
652;DHT22;310;48.490;9.200;2022-11-14T15:56:58;14.70;39.30
652;DHT22;310;48.490;9.200;2022-11-14T15:59:26;14.70;39.20
652;DHT22;310;48.490;9.200;2022-11-14T16:01:55;14.40;39.80
652;DHT22;310;48.490;9.200;2022-11-14T16:04:29;14.40;41.60
652;DHT22;310;48.490;9.200;2022-11-14T16:06:55;14.40;41.00
652;DHT22;310;48.490;9.200;2022-11-14T16:09:21;14.50;40.20
652;DHT22;310;48.490;9.200;2022-11-14T16:11:47;14.40;41.20
652;DHT22;310;48.490;9.200;2022-11-14T16:14:12;14.00;41.50
652;DHT22;310;48.490;9.200;2022-11-14T16:16:38;14.00;41.00
652;DHT22;310;48.490;9.200;2022-11-14T16:19:05;14.50;40.80
652;DHT22;310;48.490;9.200;2022-11-14T16:21:30;14.30;40.80
652;DHT22;310;48.490;9.200;2022-11-14T16:23:56;14.50;40.50
652;DHT22;310;48.490;9.200;2022-11-14T16:26:23;14.50;40.00
652;DHT22;310;48.490;9.200;2022-11-14T16:28:51;14.60;39.80
652;DHT22;310;48.490;9.200;2022-11-14T16:31:17;14.60;39.40
652;DHT22;310;48.490;9.200;2022-11-14T16:33:42;15.00;39.70
652;DHT22;310;48.490;9.200;2022-11-14T16:36:11;14.60;38.70
652;DHT22;310;48.490;9.200;2022-11-14T16:38:37;14.60;39.10
652;DHT22;310;48.490;9.200;2022-11-14T16:41:07;14.90;39.40
652;DHT22;310;48.490;9.200;2022-11-14T16:43:32;14.70;39.90
652;DHT22;310;48.490;9.200;2022-11-14T16:46:05;14.40;39.80
652;DHT22;310;48.490;9.200;2022-11-14T16:48:31;14.20;40.10
652;DHT22;310;48.490;9.200;2022-11-14T16:51:03;14.50;41.10
652;DHT22;310;48.490;9.200;2022-11-14T16:53:29;14.00;40.80
652;DHT22;310;48.490;9.200;2022-11-14T16:55:55;13.90;41.60
652;DHT22;310;48.490;9.200;2022-11-14T16:58:21;13.80;42.10
652;DHT22;310;48.490;9.200;2022-11-14T17:00:47;13.70;42.80
652;DHT22;310;48.490;9.200;2022-11-14T17:03:13;13.90;42.90
652;DHT22;310;48.490;9.200;2022-11-14T17:05:43;13.60;43.40
652;DHT22;310;48.490;9.200;2022-11-14T17:08:09;13.40;44.00
652;DHT22;310;48.490;9.200;2022-11-14T17:10:43;13.90;43.20
652;DHT22;310;48.490;9.200;2022-11-14T17:13:09;13.90;42.40
652;DHT22;310;48.490;9.200;2022-11-14T17:15:36;13.90;42.30
652;DHT22;310;48.490;9.200;2022-11-14T17:18:02;14.10;42.80
652;DHT22;310;48.490;9.200;2022-11-14T17:20:28;13.80;42.40
652;DHT22;310;48.490;9.200;2022-11-14T17:22:54;13.60;42.90
652;DHT22;310;48.490;9.200;2022-11-14T17:25:20;13.40;43.60
652;DHT22;310;48.490;9.200;2022-11-14T17:27:46;13.30;44.20
652;DHT22;310;48.490;9.200;2022-11-14T17:30:15;13.40;44.50
652;DHT22;310;48.490;9.200;2022-11-14T17:32:41;13.30;44.30
652;DHT22;310;48.490;9.200;2022-11-14T17:35:07;13.10;45.40
652;DHT22;310;48.490;9.200;2022-11-14T17:37:33;13.10;45.00
652;DHT22;310;48.490;9.200;2022-11-14T17:39:59;13.30;44.90
652;DHT22;310;48.490;9.200;2022-11-14T17:42:25;13.70;44.20
652;DHT22;310;48.490;9.200;2022-11-14T17:44:50;13.30;44.50
652;DHT22;310;48.490;9.200;2022-11-14T17:47:16;13.20;45.20
652;DHT22;310;48.490;9.200;2022-11-14T17:49:42;13.30;45.00
652;DHT22;310;48.490;9.200;2022-11-14T17:52:07;13.40;44.20
652;DHT22;310;48.490;9.200;2022-11-14T17:54:33;13.60;43.70
652;DHT22;310;48.490;9.200;2022-11-14T17:57:05;13.50;43.40
652;DHT22;310;48.490;9.200;2022-11-14T17:59:31;13.40;44.10
652;DHT22;310;48.490;9.200;2022-11-14T18:01:57;13.50;43.40
652;DHT22;310;48.490;9.200;2022-11-14T18:04:24;13.70;43.40
652;DHT22;310;48.490;9.200;2022-11-14T18:06:51;13.60;42.90
652;DHT22;310;48.490;9.200;2022-11-14T18:09:17;13.80;42.30
652;DHT22;310;48.490;9.200;2022-11-14T18:11:42;13.80;41.90
652;DHT22;310;48.490;9.200;2022-11-14T18:14:08;14.00;41.50
652;DHT22;310;48.490;9.200;2022-11-14T18:16:34;13.80;41.80
652;DHT22;310;48.490;9.200;2022-11-14T18:19:00;14.00;40.80
652;DHT22;310;48.490;9.200;2022-11-14T18:21:26;14.00;41.20
652;DHT22;310;48.490;9.200;2022-11-14T18:23:53;14.10;42.10
652;DHT22;310;48.490;9.200;2022-11-14T18:26:21;13.70;41.90
652;DHT22;310;48.490;9.200;2022-11-14T18:28:58;14.00;41.80
652;DHT22;310;48.490;9.200;2022-11-14T18:31:25;14.30;40.80
652;DHT22;310;48.490;9.200;2022-11-14T18:33:51;14.30;40.30
652;DHT22;310;48.490;9.200;2022-11-14T18:36:17;14.40;40.90
652;DHT22;310;48.490;9.200;2022-11-14T18:38:43;14.40;40.50
652;DHT22;310;48.490;9.200;2022-11-14T18:41:13;14.80;39.60
652;DHT22;310;48.490;9.200;2022-11-14T18:43:40;14.50;38.90
652;DHT22;310;48.490;9.200;2022-11-14T18:46:08;14.70;38.60
652;DHT22;310;48.490;9.200;2022-11-14T18:48:35;14.30;39.60
652;DHT22;310;48.490;9.200;2022-11-14T18:51:02;14.20;39.80
652;DHT22;310;48.490;9.200;2022-11-14T18:53:32;14.00;41.20
652;DHT22;310;48.490;9.200;2022-11-14T18:56:05;14.10;40.90
652;DHT22;310;48.490;9.200;2022-11-14T18:58:31;13.90;41.20
652;DHT22;310;48.490;9.200;2022-11-14T19:00:57;13.30;42.10